Crystal Lakes, Missouri
Current Conditions -  °F | °C
As of 6:35 PM on Thursday 18 Dec 2014 (Local Time) from KGPH Reporting Station
Overcast Overcast  
Wind Chill: 32°   Ceiling: 900
Heat Index: 32°   Visibility: 7mi
Dew Point: 30°   Wind: 3mph
Humidity: 93%   Direction: 60°ENE
Pressure: 30.24"   Gusts: NA
Location:  39.3039°N, 94.2206°W
Report Text: KGPH 190035Z AUTO 06003KT 7SM OVC009 00/M01 A3024 RMK AO2
Loading
Personal Weather Stations






























Interactive Weather Map New forecast layout! Learn more

10-Day Weather Forecast

Advertisements
Track Severe Weather on mobile